Time;durP1;ratioP1;P1;durP2;ratioP2;P2;SDS_P1;SDS_P2;PMS_P1;PMS_P2;Temp;Humidity;BMP_temperature;BMP_pressure;BME280_temperature;BME280_humidity;BME280_pressure;Samples;Min_cycle;Max_cycle;Signal;HPM_P1;HPM_P2
2021/03/29 00:01:21;;;;;;;9.43;3.22;;;12.10;84.90;;;;;;11994448;28;20045;-77
2021/03/29 00:07:08;;;;;;;5.65;2.58;;;12.10;85.30;;;;;;11998167;28;20111;-74
2021/03/29 00:12:57;;;;;;;6.38;2.53;;;12.00;84.80;;;;;;11984319;28;20056;-73
2021/03/29 00:18:44;;;;;;;5.97;2.38;;;12.00;84.30;;;;;;11994084;28;20052;-74
2021/03/29 00:24:31;;;;;;;12.15;2.92;;;12.00;84.60;;;;;;11995200;28;20056;-74
2021/03/29 00:30:21;;;;;;;8.20;2.90;;;12.00;84.70;;;;;;11991117;28;20049;-74
2021/03/29 00:36:08;;;;;;;8.95;2.80;;;12.00;84.70;;;;;;11990798;28;20045;-73
2021/03/29 00:41:56;;;;;;;9.20;3.30;;;12.00;84.40;;;;;;11987924;28;20049;-74
2021/03/29 00:47:44;;;;;;;8.23;3.00;;;11.90;84.60;;;;;;11989859;28;20129;-74
2021/03/29 00:53:31;;;;;;;9.90;3.10;;;11.90;84.90;;;;;;11993074;28;20106;-74
2021/03/29 00:59:19;;;;;;;8.65;2.78;;;11.80;85.00;;;;;;12007712;28;20094;-74
2021/03/29 01:05:09;;;;;;;18.15;4.07;;;11.70;84.90;;;;;;11984868;28;20594;-74
2021/03/29 01:10:57;;;;;;;9.38;3.53;;;11.60;85.80;;;;;;11986693;28;20055;-74
2021/03/29 01:16:48;;;;;;;12.57;3.63;;;11.50;86.60;;;;;;11992969;28;20049;-74
2021/03/29 01:22:40;;;;;;;6.88;3.20;;;11.50;86.40;;;;;;11987477;28;20048;-74
2021/03/29 01:28:27;;;;;;;8.93;3.47;;;11.50;85.90;;;;;;11990881;28;20048;-74
2021/03/29 01:34:16;;;;;;;10.45;3.25;;;11.40;86.00;;;;;;12004971;28;20041;-74
2021/03/29 01:40:04;;;;;;;9.35;3.47;;;11.40;87.20;;;;;;11988649;28;20049;-74
2021/03/29 01:45:51;;;;;;;14.50;4.18;;;11.30;86.60;;;;;;11998918;28;20369;-77
2021/03/29 01:51:38;;;;;;;9.50;2.92;;;11.20;86.50;;;;;;12002663;28;20041;-76
2021/03/29 01:57:25;;;;;;;10.02;3.05;;;11.20;86.10;;;;;;12000267;28;20050;-77
2021/03/29 02:03:12;;;;;;;12.70;3.70;;;11.20;86.40;;;;;;12004193;28;20045;-77
2021/03/29 02:09:00;;;;;;;8.38;3.53;;;11.20;87.20;;;;;;12019563;28;20118;-74
2021/03/29 02:14:47;;;;;;;7.50;2.90;;;11.20;86.60;;;;;;11999616;28;20057;-74
2021/03/29 02:20:37;;;;;;;10.35;3.10;;;11.20;85.90;;;;;;11997715;28;20052;-74
2021/03/29 02:26:26;;;;;;;10.82;3.08;;;11.10;86.60;;;;;;11993642;28;20048;-74
2021/03/29 02:32:12;;;;;;;6.18;2.95;;;11.10;86.90;;;;;;11995234;28;20053;-74
2021/03/29 02:38:00;;;;;;;12.65;2.80;;;11.10;86.70;;;;;;11999032;28;20137;-74
2021/03/29 02:43:48;;;;;;;9.63;2.75;;;11.00;86.80;;;;;;11996508;28;20064;-74
2021/03/29 02:49:35;;;;;;;6.45;2.85;;;10.90;86.30;;;;;;11999202;28;20045;-74
2021/03/29 02:55:25;;;;;;;16.58;3.30;;;10.90;86.30;;;;;;11998292;28;20542;-73
2021/03/29 03:01:14;;;;;;;6.57;2.90;;;10.80;86.50;;;;;;11997514;28;20037;-73
2021/03/29 03:07:01;;;;;;;7.93;2.83;;;10.70;86.40;;;;;;11995101;28;20519;-74
2021/03/29 03:12:49;;;;;;;10.63;2.95;;;10.70;86.80;;;;;;11997584;28;20462;-73
2021/03/29 03:18:36;;;;;;;8.20;3.03;;;10.80;86.70;;;;;;11992098;28;20041;-74
2021/03/29 03:24:32;;;;;;;12.88;3.10;;;10.80;87.10;;;;;;11991888;28;20056;-75
2021/03/29 03:30:32;;;;;;;7.75;2.83;;;10.70;86.90;;;;;;11999066;28;20046;-73
2021/03/29 03:36:22;;;;;;;13.50;3.42;;;10.60;86.90;;;;;;11990714;28;20132;-74
2021/03/29 03:42:10;;;;;;;4.50;2.53;;;10.50;86.90;;;;;;11996648;28;20507;-74
2021/03/29 03:47:59;;;;;;;12.38;2.90;;;10.50;87.00;;;;;;11992979;28;20041;-74
2021/03/29 03:53:47;;;;;;;8.88;2.88;;;10.50;86.70;;;;;;11995295;28;20076;-73
2021/03/29 03:59:39;;;;;;;7.57;2.65;;;10.50;87.10;;;;;;11990028;28;20071;-74
2021/03/29 04:05:26;;;;;;;13.85;3.08;;;10.50;86.90;;;;;;11992449;28;20052;-75
2021/03/29 04:11:15;;;;;;;17.45;3.03;;;10.50;86.80;;;;;;11991000;28;20076;-74
2021/03/29 04:17:02;;;;;;;6.95;2.60;;;10.60;86.30;;;;;;11986326;28;20526;-73
2021/03/29 04:22:49;;;;;;;8.45;3.10;;;10.50;86.20;;;;;;11985816;28;20532;-74
2021/03/29 04:28:36;;;;;;;8.93;3.30;;;10.50;86.20;;;;;;11985303;28;20281;-74
2021/03/29 04:34:22;;;;;;;8.57;3.13;;;10.40;86.70;;;;;;11994911;28;20142;-74
2021/03/29 04:40:11;;;;;;;17.67;3.85;;;10.40;87.00;;;;;;11984500;28;20052;-74
2021/03/29 04:45:58;;;;;;;18.55;3.65;;;10.30;86.80;;;;;;11986839;28;20051;-73
2021/03/29 04:51:44;;;;;;;10.07;3.13;;;10.20;87.10;;;;;;11982921;28;20049;-74
2021/03/29 04:57:32;;;;;;;10.57;2.85;;;10.20;86.70;;;;;;11991763;28;20072;-74
2021/03/29 05:03:18;;;;;;;13.27;3.30;;;10.20;86.80;;;;;;11986753;28;20044;-74
2021/03/29 05:09:06;;;;;;;15.38;3.65;;;10.20;87.30;;;;;;11984152;28;20060;-74
2021/03/29 05:14:53;;;;;;;21.95;3.97;;;10.20;87.30;;;;;;11996761;28;20404;-74
2021/03/29 05:20:39;;;;;;;15.00;3.58;;;10.20;86.90;;;;;;11998105;28;20065;-73
2021/03/29 05:26:26;;;;;;;10.45;3.13;;;10.20;86.60;;;;;;11989790;28;20338;-73
2021/03/29 05:32:16;;;;;;;12.07;3.83;;;10.10;86.90;;;;;;11987435;28;20054;-73
2021/03/29 05:38:02;;;;;;;14.98;3.47;;;10.10;86.60;;;;;;11993991;28;20048;-74
2021/03/29 05:43:49;;;;;;;11.55;3.80;;;10.10;86.90;;;;;;11988368;28;20045;-74
2021/03/29 05:49:37;;;;;;;20.92;3.75;;;10.10;87.00;;;;;;12002234;28;20484;-74
2021/03/29 05:55:30;;;;;;;14.32;3.90;;;10.10;86.40;;;;;;11993321;28;20060;-74
2021/03/29 06:01:16;;;;;;;15.02;3.50;;;10.10;86.60;;;;;;11979636;28;20344;-74
2021/03/29 06:07:10;;;;;;;16.40;4.53;;;10.00;86.90;;;;;;11988874;28;20057;-73
2021/03/29 06:12:56;;;;;;;;;;;10.00;87.10;;;;;;11988344;28;20467;-73
2021/03/29 06:18:50;;;;;;;13.82;4.35;;;10.00;86.90;;;;;;12000444;28;19932;-77
2021/03/29 06:24:55;;;;;;;18.38;5.10;;;10.10;86.90;;;;;;11998802;28;20140;-74
2021/03/29 06:30:42;;;;;;;11.30;3.88;;;10.20;87.30;;;;;;12001612;28;20213;-75
2021/03/29 06:36:33;;;;;;;15.68;5.45;;;10.20;87.60;;;;;;11997076;28;20053;-76
2021/03/29 06:42:31;;;;;;;22.10;5.95;;;10.30;87.90;;;;;;11983448;28;20568;-77
2021/03/29 06:48:25;;;;;;;13.85;4.70;;;10.30;88.40;;;;;;11995916;28;21122;-78
2021/03/29 06:54:11;;;;;;;;;;;10.40;88.90;;;;;;11995143;28;20063;-75
2021/03/29 06:59:59;;;;;;;19.23;5.82;;;10.50;89.10;;;;;;11994837;28;19983;-76
2021/03/29 07:05:48;;;;;;;16.77;5.97;;;10.70;89.20;;;;;;11996550;28;20052;-77
2021/03/29 07:11:36;;;;;;;19.27;6.57;;;10.70;89.10;;;;;;12002340;28;20103;-78
2021/03/29 07:17:28;;;;;;;24.35;6.60;;;10.80;89.10;;;;;;11994676;28;20094;-77
2021/03/29 07:23:14;;;;;;;20.02;6.57;;;11.00;89.30;;;;;;11994866;28;20049;-75
2021/03/29 07:29:20;;;;;;;16.55;5.50;;;11.10;89.90;;;;;;11994416;28;20045;-76
2021/03/29 07:35:08;;;;;;;13.10;4.85;;;11.40;90.10;;;;;;11994399;28;20076;-76
2021/03/29 07:40:57;;;;;;;14.57;6.70;;;11.50;90.20;;;;;;11995717;28;20057;-76
2021/03/29 07:46:47;;;;;;;17.95;6.45;;;11.80;90.10;;;;;;11993367;28;20056;-76
2021/03/29 07:52:39;;;;;;;19.98;7.80;;;12.00;89.50;;;;;;11992664;28;20662;-75
2021/03/29 07:58:27;;;;;;;24.92;7.97;;;12.10;88.10;;;;;;11991420;28;20041;-75
2021/03/29 08:04:14;;;;;;;29.30;8.93;;;12.40;87.80;;;;;;11992554;28;20426;-74
2021/03/29 08:10:01;;;;;;;37.35;9.52;;;12.50;87.70;;;;;;11987622;28;20061;-75
2021/03/29 08:16:00;;;;;;;24.05;8.40;;;12.70;87.40;;;;;;11989069;28;20060;-76
2021/03/29 08:21:49;;;;;;;23.30;7.57;;;12.70;87.40;;;;;;11991196;28;20056;-76
2021/03/29 08:27:36;;;;;;;23.10;7.15;;;12.90;86.40;;;;;;11991852;28;20740;-76
2021/03/29 08:33:24;;;;;;;23.45;6.80;;;13.10;84.80;;;;;;11989034;28;20056;-75
2021/03/29 08:39:11;;;;;;;21.08;7.38;;;13.20;84.20;;;;;;11990141;28;20102;-76
2021/03/29 08:45:00;;;;;;;19.48;6.82;;;13.40;84.20;;;;;;11991672;28;20049;-74
2021/03/29 08:50:48;;;;;;;20.38;7.40;;;13.60;84.30;;;;;;11993411;28;20483;-75
2021/03/29 08:56:41;;;;;;;16.70;6.25;;;13.70;83.40;;;;;;11984899;28;20062;-75
2021/03/29 09:02:29;;;;;;;15.55;7.25;;;13.80;83.30;;;;;;11986998;28;20052;-73
2021/03/29 09:08:19;;;;;;;35.10;13.43;;;13.90;83.30;;;;;;11990357;28;20045;-75
2021/03/29 09:14:06;;;;;;;29.25;10.90;;;14.00;84.40;;;;;;11982175;28;20045;-78
2021/03/29 09:19:53;;;;;;;19.20;8.20;;;14.10;83.90;;;;;;11985085;28;20045;-76
2021/03/29 09:25:42;;;;;;;14.80;4.47;;;14.20;84.00;;;;;;11987607;28;20057;-75
2021/03/29 09:31:33;;;;;;;13.07;4.95;;;14.30;82.00;;;;;;11986527;28;20220;-75
2021/03/29 09:37:23;;;;;;;7.40;3.13;;;14.40;81.80;;;;;;11990610;28;20573;-75
2021/03/29 09:43:19;;;;;;;11.32;5.15;;;14.50;78.30;;;;;;11979389;28;20055;-75
2021/03/29 09:49:06;;;;;;;13.65;4.60;;;14.60;80.50;;;;;;11991192;28;20052;-75
2021/03/29 09:54:54;;;;;;;17.50;4.72;;;14.70;80.20;;;;;;11999296;28;20435;-75
2021/03/29 10:00:41;;;;;;;29.63;5.40;;;14.90;80.00;;;;;;11998629;28;20056;-76
2021/03/29 10:06:29;;;;;;;12.27;4.15;;;15.00;80.80;;;;;;11999919;28;20156;-75
2021/03/29 10:12:27;;;;;;;13.35;2.63;;;15.00;80.10;;;;;;11994747;28;20050;-75
2021/03/29 10:18:15;;;;;;;12.48;3.60;;;15.00;76.50;;;;;;12006351;28;20132;-75
2021/03/29 10:24:12;;;;;;;4.72;2.38;;;15.10;77.50;;;;;;11992197;28;20046;-75
2021/03/29 10:29:59;;;;;;;15.15;2.80;;;15.30;76.30;;;;;;11997833;28;20054;-76
2021/03/29 10:35:45;;;;;;;6.97;2.42;;;15.30;75.30;;;;;;12001639;28;20377;-77
2021/03/29 10:41:32;;;;;;;5.30;1.98;;;15.50;73.60;;;;;;11994412;28;20068;-78
2021/03/29 10:47:19;;;;;;;7.57;2.03;;;15.70;71.40;;;;;;12002500;28;20082;-77
2021/03/29 10:53:05;;;;;;;5.18;1.95;;;15.90;71.70;;;;;;11996739;28;20053;-79
2021/03/29 10:58:52;;;;;;;4.90;2.28;;;15.90;70.80;;;;;;11996194;28;20064;-78
2021/03/29 11:04:39;;;;;;;5.25;2.20;;;16.00;69.30;;;;;;11992105;28;20060;-79
2021/03/29 11:10:25;;;;;;;8.60;2.35;;;16.20;69.40;;;;;;12003158;28;20142;-77
2021/03/29 11:16:14;;;;;;;6.40;2.25;;;16.40;70.60;;;;;;12004268;28;20068;-78
2021/03/29 11:22:01;;;;;;;7.68;2.00;;;16.40;68.80;;;;;;12004073;28;20051;-79
2021/03/29 11:27:47;;;;;;;7.10;2.28;;;16.60;68.20;;;;;;11997632;28;20057;-79
2021/03/29 11:33:34;;;;;;;10.52;2.33;;;16.80;67.50;;;;;;11998762;28;20107;-78
2021/03/29 11:39:21;;;;;;;8.77;2.25;;;17.00;69.60;;;;;;11992213;28;20045;-77
2021/03/29 11:45:10;;;;;;;8.60;2.35;;;17.00;67.10;;;;;;11994264;28;20079;-76
2021/03/29 11:50:56;;;;;;;5.80;2.28;;;17.10;66.60;;;;;;11999171;28;20512;-74
2021/03/29 11:56:44;;;;;;;8.55;1.98;;;17.40;66.40;;;;;;11988781;28;20118;-77
2021/03/29 12:02:35;;;;;;;4.70;1.95;;;17.50;66.90;;;;;;11985164;28;20538;-73
2021/03/29 12:08:28;;;;;;;12.23;2.75;;;17.60;61.60;;;;;;11989910;28;20080;-73
2021/03/29 12:14:16;;;;;;;10.88;2.15;;;17.70;59.30;;;;;;11986943;28;20098;-73
2021/03/29 12:20:03;;;;;;;3.83;1.70;;;17.90;62.10;;;;;;11984585;28;20049;-72
2021/03/29 12:26:27;;;;;;;7.78;1.92;;;18.10;59.40;;;;;;12540144;22;20020;-73
2021/03/29 12:32:18;;;;;;;7.38;1.80;;;18.30;57.40;;;;;;11891197;28;20053;-74
2021/03/29 12:38:05;;;;;;;3.88;1.90;;;18.60;59.30;;;;;;11908987;28;20067;-74
2021/03/29 12:44:01;;;;;;;6.25;2.25;;;18.70;53.80;;;;;;11925298;28;20068;-74
2021/03/29 12:49:51;;;;;;;3.45;1.80;;;19.00;53.40;;;;;;11932409;28;20081;-75
2021/03/29 12:55:37;;;;;;;4.50;2.13;;;19.20;54.30;;;;;;11931072;28;20144;-73
2021/03/29 13:01:24;;;;;;;5.47;1.90;;;19.40;54.80;;;;;;11935678;28;20053;-75
2021/03/29 13:07:19;;;;;;;4.75;2.28;;;19.50;54.30;;;;;;11934161;28;20492;-74
2021/03/29 13:13:08;;;;;;;6.88;1.90;;;19.70;53.20;;;;;;11941596;28;20049;-73
2021/03/29 13:18:55;;;;;;;8.13;2.25;;;19.80;52.50;;;;;;11945342;28;20060;-75
2021/03/29 13:24:43;;;;;;;4.03;1.80;;;20.10;53.20;;;;;;11942684;28;20137;-77
2021/03/29 13:30:32;;;;;;;6.15;1.92;;;20.20;54.80;;;;;;11944534;28;20144;-75
2021/03/29 13:36:18;;;;;;;6.78;2.30;;;20.40;52.60;;;;;;11942237;28;20614;-75
2021/03/29 13:42:06;;;;;;;13.50;2.50;;;20.60;54.10;;;;;;11942837;28;20068;-73
2021/03/29 13:47:53;;;;;;;7.15;2.20;;;20.70;54.00;;;;;;11940909;28;20111;-73
2021/03/29 13:53:50;;;;;;;7.15;2.58;;;20.90;53.70;;;;;;11943341;28;20057;-74
2021/03/29 13:59:38;;;;;;;10.48;2.20;;;21.00;52.70;;;;;;11925482;28;20060;-73
2021/03/29 14:05:29;;;;;;;5.68;2.40;;;21.10;52.00;;;;;;11940110;28;20056;-75
2021/03/29 14:11:15;;;;;;;6.43;2.20;;;21.20;51.70;;;;;;11939697;28;20500;-74
2021/03/29 14:17:03;;;;;;;5.40;2.20;;;21.30;51.60;;;;;;11937275;28;20114;-75
2021/03/29 14:22:50;;;;;;;5.43;2.08;;;21.50;51.50;;;;;;11938338;28;20073;-75
2021/03/29 14:28:36;;;;;;;9.02;2.00;;;21.60;51.30;;;;;;11936359;28;20099;-74
2021/03/29 14:34:24;;;;;;;6.13;2.13;;;21.60;51.50;;;;;;11920580;28;20087;-77
2021/03/29 14:40:13;;;;;;;14.30;2.80;;;21.70;49.60;;;;;;11936350;28;20049;-77
2021/03/29 14:45:59;;;;;;;5.00;2.10;;;21.70;48.50;;;;;;11937203;28;20049;-77
2021/03/29 14:51:47;;;;;;;7.53;2.35;;;21.80;49.00;;;;;;11935735;28;20064;-74
2021/03/29 14:57:34;;;;;;;3.80;2.00;;;21.90;48.30;;;;;;11931037;28;20064;-74
2021/03/29 15:03:22;;;;;;;4.93;2.30;;;22.10;48.70;;;;;;11935931;28;20072;-75
2021/03/29 15:09:10;;;;;;;10.45;2.40;;;22.10;47.60;;;;;;11932598;28;20045;-74
2021/03/29 15:14:57;;;;;;;7.32;2.33;;;22.20;47.10;;;;;;11936635;28;20045;-77
2021/03/29 15:20:43;;;;;;;4.32;2.13;;;22.20;46.60;;;;;;11936346;28;20196;-76
2021/03/29 15:26:31;;;;;;;5.57;2.10;;;22.30;45.70;;;;;;11940581;28;20057;-79
2021/03/29 15:32:17;;;;;;;4.05;2.17;;;22.20;46.30;;;;;;11944086;28;20057;-79
2021/03/29 15:38:05;;;;;;;7.22;2.10;;;22.20;46.40;;;;;;11944639;28;20140;-79
2021/03/29 15:43:52;;;;;;;6.47;2.42;;;22.20;46.40;;;;;;11951342;28;20107;-80
2021/03/29 15:49:39;;;;;;;7.85;2.40;;;22.20;45.10;;;;;;11947411;28;20766;-80
2021/03/29 15:55:25;;;;;;;5.32;2.10;;;22.20;44.80;;;;;;11950781;28;20050;-80
2021/03/29 16:01:13;;;;;;;6.07;2.10;;;22.30;44.50;;;;;;11939466;28;20053;-79
2021/03/29 16:07:01;;;;;;;5.57;2.40;;;22.30;44.30;;;;;;11942337;28;20049;-79
2021/03/29 16:12:47;;;;;;;5.13;2.30;;;22.30;44.70;;;;;;11945109;28;20061;-82
2021/03/29 16:18:34;;;;;;;6.18;2.35;;;22.40;45.70;;;;;;11946845;28;20046;-79
2021/03/29 16:24:22;;;;;;;5.85;2.35;;;22.40;45.50;;;;;;11944843;28;20045;-80
2021/03/29 16:30:09;;;;;;;8.85;3.22;;;22.50;45.30;;;;;;11943337;28;20065;-80
2021/03/29 16:36:00;;;;;;;8.32;2.72;;;22.60;44.60;;;;;;11945280;28;20049;-82
2021/03/29 16:41:46;;;;;;;7.38;2.53;;;22.80;44.70;;;;;;11947773;28;20045;-82
2021/03/29 16:47:36;;;;;;;6.45;2.47;;;22.90;44.50;;;;;;11951234;28;20124;-83
2021/03/29 16:53:23;;;;;;;6.93;2.40;;;23.50;43.50;;;;;;11951935;28;20064;-81
2021/03/29 16:59:10;;;;;;;7.15;2.75;;;25.40;40.90;;;;;;11954621;28;20119;-82
2021/03/29 17:04:56;;;;;;;4.43;2.35;;;27.50;37.40;;;;;;11949705;28;20053;-81
2021/03/29 17:10:44;;;;;;;11.75;5.88;;;28.20;36.20;;;;;;11946947;28;20053;-80
2021/03/29 17:16:31;;;;;;;5.68;3.00;;;29.10;34.90;;;;;;11941977;28;20081;-81
2021/03/29 17:22:17;;;;;;;12.57;4.65;;;29.00;35.60;;;;;;11947099;28;20104;-80
2021/03/29 17:28:06;;;;;;;7.53;2.65;;;28.30;39.70;;;;;;11945803;28;20375;-81
2021/03/29 17:33:52;;;;;;;7.72;2.88;;;27.00;41.80;;;;;;11954309;28;20065;-81
2021/03/29 17:39:39;;;;;;;5.32;2.00;;;25.00;44.60;;;;;;11947767;28;20053;-81
2021/03/29 17:45:27;;;;;;;9.07;2.80;;;23.30;47.10;;;;;;11948691;28;20412;-79
2021/03/29 17:51:14;;;;;;;8.23;2.47;;;22.00;49.00;;;;;;11944230;28;20099;-82
2021/03/29 17:57:00;;;;;;;4.47;2.25;;;21.10;49.50;;;;;;11949356;28;20045;-82
2021/03/29 18:02:49;;;;;;;5.78;2.55;;;20.60;49.90;;;;;;11944691;28;20050;-79
2021/03/29 18:08:36;;;;;;;4.93;2.30;;;20.20;52.10;;;;;;11951827;28;20049;-81
2021/03/29 18:14:23;;;;;;;8.02;2.60;;;19.80;50.90;;;;;;11949838;28;20068;-81
2021/03/29 18:20:14;;;;;;;7.97;4.15;;;19.50;53.40;;;;;;11949442;28;20045;-86
2021/03/29 18:26:00;;;;;;;4.00;2.30;;;19.30;53.90;;;;;;11950369;28;20268;-85
2021/03/29 18:31:48;;;;;;;5.78;2.55;;;19.00;55.50;;;;;;11972802;28;20053;-82
2021/03/29 18:37:35;;;;;;;4.70;2.35;;;18.70;55.80;;;;;;11958392;28;20053;-84
2021/03/29 18:43:28;;;;;;;6.03;2.45;;;18.50;55.70;;;;;;11958908;28;20049;-85
2021/03/29 18:49:15;;;;;;;4.53;2.60;;;18.30;56.40;;;;;;11956323;28;20606;-84
2021/03/29 18:55:02;;;;;;;6.00;2.78;;;18.20;57.20;;;;;;11957166;28;20110;-85
2021/03/29 19:00:49;;;;;;;5.75;2.63;;;18.00;56.90;;;;;;11952793;28;20496;-84
2021/03/29 19:06:37;;;;;;;6.43;2.90;;;18.00;57.80;;;;;;11961009;28;20069;-84
2021/03/29 19:12:25;;;;;;;10.07;3.10;;;17.80;59.00;;;;;;11953733;28;20080;-84
2021/03/29 19:18:11;;;;;;;12.55;2.78;;;17.70;60.30;;;;;;11955225;28;20496;-84
2021/03/29 19:23:58;;;;;;;9.35;3.30;;;17.60;60.10;;;;;;11954971;28;20057;-84
2021/03/29 19:29:46;;;;;;;11.32;4.95;;;17.50;60.60;;;;;;11951838;28;20115;-83
2021/03/29 19:35:32;;;;;;;9.55;3.80;;;17.40;61.90;;;;;;11975420;28;20048;-80
2021/03/29 19:41:19;;;;;;;8.52;4.15;;;17.30;62.00;;;;;;11970003;28;20401;-79
2021/03/29 19:47:06;;;;;;;15.98;5.30;;;17.20;62.80;;;;;;11949531;28;20060;-79
2021/03/29 19:52:52;;;;;;;13.63;4.80;;;17.10;64.10;;;;;;11947841;28;20049;-80
2021/03/29 19:58:39;;;;;;;7.53;3.88;;;17.00;64.10;;;;;;11946912;28;20045;-81
2021/03/29 20:04:37;;;;;;;16.08;5.30;;;16.90;64.40;;;;;;11948134;28;20060;-79
2021/03/29 20:10:24;;;;;;;15.32;4.95;;;16.80;65.50;;;;;;11943895;28;20135;-81
2021/03/29 20:16:11;;;;;;;16.33;4.93;;;16.80;66.00;;;;;;11951282;28;20057;-79
2021/03/29 20:21:59;;;;;;;17.48;4.43;;;16.70;65.90;;;;;;11942486;28;20045;-79
2021/03/29 20:27:45;;;;;;;34.17;6.35;;;16.60;66.60;;;;;;11942050;28;20087;-80
2021/03/29 20:33:32;;;;;;;18.20;5.57;;;16.60;67.20;;;;;;11945066;28;20056;-80
2021/03/29 20:39:20;;;;;;;10.98;4.63;;;16.50;67.70;;;;;;11938849;28;20042;-81
2021/03/29 20:45:08;;;;;;;10.88;4.75;;;16.40;67.20;;;;;;11930800;28;20600;-80
2021/03/29 20:50:54;;;;;;;22.60;5.43;;;16.40;67.40;;;;;;11938030;28;20041;-81
2021/03/29 20:56:41;;;;;;;15.75;4.75;;;16.30;67.90;;;;;;11940516;28;20065;-79
2021/03/29 21:02:29;;;;;;;12.35;4.40;;;16.20;68.30;;;;;;11951795;28;20072;-81
2021/03/29 21:08:15;;;;;;;16.45;4.38;;;16.20;68.90;;;;;;11947300;28;20049;-81
2021/03/29 21:14:02;;;;;;;24.80;5.25;;;16.10;68.90;;;;;;11948689;28;20053;-81
2021/03/29 21:19:49;;;;;;;25.25;7.20;;;16.10;69.50;;;;;;11943129;28;20448;-80
2021/03/29 21:25:38;;;;;;;27.73;6.57;;;16.00;69.60;;;;;;11945992;28;20054;-79
2021/03/29 21:31:25;;;;;;;14.30;5.28;;;15.90;69.50;;;;;;11952164;28;20144;-85
2021/03/29 21:37:11;;;;;;;11.85;4.10;;;15.80;69.20;;;;;;11961222;28;20076;-87
2021/03/29 21:42:58;;;;;;;14.55;4.45;;;15.70;68.80;;;;;;11956025;28;20041;-85
2021/03/29 21:48:45;;;;;;;12.25;4.50;;;15.60;69.10;;;;;;11974829;28;20072;-84
2021/03/29 21:54:31;;;;;;;15.80;6.22;;;15.60;69.60;;;;;;11965933;28;20046;-84
2021/03/29 22:00:21;;;;;;;25.98;6.03;;;15.60;70.20;;;;;;11968815;28;20050;-85
2021/03/29 22:06:09;;;;;;;29.45;7.22;;;15.60;70.60;;;;;;11945827;28;20396;-86
2021/03/29 22:11:55;;;;;;;43.83;8.80;;;15.50;71.20;;;;;;11961734;28;20814;-85
2021/03/29 22:17:42;;;;;;;27.90;7.68;;;15.50;71.40;;;;;;11959066;28;20522;-85
2021/03/29 22:23:29;;;;;;;28.27;6.18;;;15.40;71.10;;;;;;11962615;28;20041;-86
2021/03/29 22:29:19;;;;;;;23.77;7.18;;;15.30;71.20;;;;;;11965412;28;20076;-85
2021/03/29 22:35:17;;;;;;;11.38;5.07;;;15.30;71.40;;;;;;11946492;28;20091;-86
2021/03/29 22:41:16;;;;;;;12.18;5.32;;;15.30;71.10;;;;;;11968199;28;20128;-85
2021/03/29 22:47:04;;;;;;;17.20;5.20;;;15.20;71.10;;;;;;11961755;28;20782;-85
2021/03/29 22:52:50;;;;;;;13.88;5.20;;;15.10;71.00;;;;;;11964776;28;20435;-86
2021/03/29 22:58:38;;;;;;;16.27;6.90;;;15.00;71.00;;;;;;11960956;28;20049;-86
2021/03/29 23:04:24;;;;;;;20.13;5.38;;;15.00;71.70;;;;;;11962922;28;20042;-86
2021/03/29 23:10:13;;;;;;;21.58;5.85;;;15.00;71.90;;;;;;11982960;28;20149;-87
2021/03/29 23:16:00;;;;;;;28.98;7.47;;;15.00;72.80;;;;;;11981170;28;20107;-86
2021/03/29 23:21:47;;;;;;;34.05;7.43;;;15.00;73.40;;;;;;11956937;28;20464;-87
2021/03/29 23:27:36;;;;;;;37.45;8.25;;;14.90;74.00;;;;;;11964889;28;20057;-86
2021/03/29 23:33:23;;;;;;;24.10;7.50;;;14.80;73.80;;;;;;11960714;28;20041;-87
2021/03/29 23:39:09;;;;;;;24.60;8.45;;;14.70;73.70;;;;;;11966282;28;20049;-87
2021/03/29 23:44:56;;;;;;;27.65;7.93;;;14.60;74.10;;;;;;11964860;28;20456;-86
2021/03/29 23:50:43;;;;;;;17.35;8.18;;;14.60;73.80;;;;;;11961180;28;20041;-86
2021/03/29 23:56:30;;;;;;;25.17;7.03;;;14.50;73.70;;;;;;11966208;28;20053;-87
